sensor_id;sensor_type;location;lat;lon;timestamp;temperature;humidity
22192;DHT22;11261;52.456;10.850;2023-05-07T00:01:15;9.20;99.90
22192;DHT22;11261;52.456;10.850;2023-05-07T00:03:45;9.20;99.90
22192;DHT22;11261;52.456;10.850;2023-05-07T00:06:15;9.20;99.90
22192;DHT22;11261;52.456;10.850;2023-05-07T00:08:43;9.20;99.90
22192;DHT22;11261;52.456;10.850;2023-05-07T00:11:13;9.20;99.90
22192;DHT22;11261;52.456;10.850;2023-05-07T00:13:41;9.30;99.90
22192;DHT22;11261;52.456;10.850;2023-05-07T00:16:09;9.20;99.90
22192;DHT22;11261;52.456;10.850;2023-05-07T00:18:38;9.20;99.90
22192;DHT22;11261;52.456;10.850;2023-05-07T00:21:06;9.20;99.90
22192;DHT22;11261;52.456;10.850;2023-05-07T00:23:35;9.20;99.90
22192;DHT22;11261;52.456;10.850;2023-05-07T00:26:03;9.20;99.90
22192;DHT22;11261;52.456;10.850;2023-05-07T00:28:33;9.20;99.90
22192;DHT22;11261;52.456;10.850;2023-05-07T00:31:01;9.20;99.90
22192;DHT22;11261;52.456;10.850;2023-05-07T00:33:29;9.20;99.90
22192;DHT22;11261;52.456;10.850;2023-05-07T00:35:58;9.20;99.90
22192;DHT22;11261;52.456;10.850;2023-05-07T00:38:28;9.10;99.90
22192;DHT22;11261;52.456;10.850;2023-05-07T00:40:56;9.10;99.90
22192;DHT22;11261;52.456;10.850;2023-05-07T00:43:24;9.10;99.90
22192;DHT22;11261;52.456;10.850;2023-05-07T00:45:55;9.10;99.90
22192;DHT22;11261;52.456;10.850;2023-05-07T00:48:25;9.10;99.90
22192;DHT22;11261;52.456;10.850;2023-05-07T00:50:53;9.10;99.90
22192;DHT22;11261;52.456;10.850;2023-05-07T00:53:22;9.00;99.90
22192;DHT22;11261;52.456;10.850;2023-05-07T00:55:51;9.10;99.90
22192;DHT22;11261;52.456;10.850;2023-05-07T00:58:19;9.10;99.90
22192;DHT22;11261;52.456;10.850;2023-05-07T01:00:49;9.10;99.90
22192;DHT22;11261;52.456;10.850;2023-05-07T01:03:19;9.00;99.90
22192;DHT22;11261;52.456;10.850;2023-05-07T01:05:48;9.10;99.90
22192;DHT22;11261;52.456;10.850;2023-05-07T01:08:19;9.10;99.90
22192;DHT22;11261;52.456;10.850;2023-05-07T01:10:48;9.00;99.90
22192;DHT22;11261;52.456;10.850;2023-05-07T01:13:17;9.00;99.90
22192;DHT22;11261;52.456;10.850;2023-05-07T01:15:47;9.00;99.90
22192;DHT22;11261;52.456;10.850;2023-05-07T01:18:16;9.00;99.90
22192;DHT22;11261;52.456;10.850;2023-05-07T01:20:45;9.20;99.90
22192;DHT22;11261;52.456;10.850;2023-05-07T01:23:15;9.10;99.90
22192;DHT22;11261;52.456;10.850;2023-05-07T01:25:51;9.10;99.90
22192;DHT22;11261;52.456;10.850;2023-05-07T01:28:19;9.00;99.90
22192;DHT22;11261;52.456;10.850;2023-05-07T01:31:00;9.00;99.90
22192;DHT22;11261;52.456;10.850;2023-05-07T01:33:31;9.00;99.90
22192;DHT22;11261;52.456;10.850;2023-05-07T01:36:00;9.00;99.90
22192;DHT22;11261;52.456;10.850;2023-05-07T01:38:32;9.00;99.90
22192;DHT22;11261;52.456;10.850;2023-05-07T01:41:01;9.10;99.90
22192;DHT22;11261;52.456;10.850;2023-05-07T01:43:30;9.10;99.90
22192;DHT22;11261;52.456;10.850;2023-05-07T01:46:00;9.00;99.90
22192;DHT22;11261;52.456;10.850;2023-05-07T01:48:29;9.00;99.90
22192;DHT22;11261;52.456;10.850;2023-05-07T01:50:59;9.00;99.90
22192;DHT22;11261;52.456;10.850;2023-05-07T01:53:27;9.00;99.90
22192;DHT22;11261;52.456;10.850;2023-05-07T01:55:57;9.00;99.90
22192;DHT22;11261;52.456;10.850;2023-05-07T01:58:25;8.90;99.90
22192;DHT22;11261;52.456;10.850;2023-05-07T02:00:53;9.00;99.90
22192;DHT22;11261;52.456;10.850;2023-05-07T02:03:21;8.90;99.90
22192;DHT22;11261;52.456;10.850;2023-05-07T02:05:50;9.00;99.90
22192;DHT22;11261;52.456;10.850;2023-05-07T02:08:18;9.00;99.90
22192;DHT22;11261;52.456;10.850;2023-05-07T02:10:47;9.00;99.90
22192;DHT22;11261;52.456;10.850;2023-05-07T02:13:16;9.00;99.90
22192;DHT22;11261;52.456;10.850;2023-05-07T02:15:45;9.00;99.90
22192;DHT22;11261;52.456;10.850;2023-05-07T02:18:17;9.00;99.90
22192;DHT22;11261;52.456;10.850;2023-05-07T02:20:45;8.90;99.90
22192;DHT22;11261;52.456;10.850;2023-05-07T02:23:14;8.90;99.90
22192;DHT22;11261;52.456;10.850;2023-05-07T02:25:42;8.90;99.90
22192;DHT22;11261;52.456;10.850;2023-05-07T02:28:10;8.80;99.90
22192;DHT22;11261;52.456;10.850;2023-05-07T02:30:40;8.90;99.90
22192;DHT22;11261;52.456;10.850;2023-05-07T02:33:08;8.80;99.90
22192;DHT22;11261;52.456;10.850;2023-05-07T02:35:39;8.90;99.90
22192;DHT22;11261;52.456;10.850;2023-05-07T02:38:07;8.80;99.90
22192;DHT22;11261;52.456;10.850;2023-05-07T02:40:37;8.80;99.90
22192;DHT22;11261;52.456;10.850;2023-05-07T02:43:07;8.80;99.90
22192;DHT22;11261;52.456;10.850;2023-05-07T02:45:35;8.80;99.90
22192;DHT22;11261;52.456;10.850;2023-05-07T02:48:06;8.80;99.90
22192;DHT22;11261;52.456;10.850;2023-05-07T02:50:34;8.80;99.90
22192;DHT22;11261;52.456;10.850;2023-05-07T02:53:02;8.80;99.90
22192;DHT22;11261;52.456;10.850;2023-05-07T02:55:31;8.80;99.90
22192;DHT22;11261;52.456;10.850;2023-05-07T02:57:59;8.80;99.90
22192;DHT22;11261;52.456;10.850;2023-05-07T03:00:28;8.80;99.90
22192;DHT22;11261;52.456;10.850;2023-05-07T03:02:56;8.80;99.90
22192;DHT22;11261;52.456;10.850;2023-05-07T03:05:26;8.80;99.90
22192;DHT22;11261;52.456;10.850;2023-05-07T03:07:54;8.80;99.90
22192;DHT22;11261;52.456;10.850;2023-05-07T03:10:22;8.80;99.90
22192;DHT22;11261;52.456;10.850;2023-05-07T03:12:51;8.80;99.90
22192;DHT22;11261;52.456;10.850;2023-05-07T03:15:19;8.80;99.90
22192;DHT22;11261;52.456;10.850;2023-05-07T03:17:48;8.80;99.90
22192;DHT22;11261;52.456;10.850;2023-05-07T03:20:17;8.80;99.90
22192;DHT22;11261;52.456;10.850;2023-05-07T03:22:47;8.80;99.90
22192;DHT22;11261;52.456;10.850;2023-05-07T03:25:15;8.90;99.90
22192;DHT22;11261;52.456;10.850;2023-05-07T03:27:43;8.90;99.90
22192;DHT22;11261;52.456;10.850;2023-05-07T03:30:12;9.00;99.90
22192;DHT22;11261;52.456;10.850;2023-05-07T03:32:40;8.90;99.90
22192;DHT22;11261;52.456;10.850;2023-05-07T03:35:09;8.90;99.90
22192;DHT22;11261;52.456;10.850;2023-05-07T03:37:38;8.90;99.90
22192;DHT22;11261;52.456;10.850;2023-05-07T03:40:09;8.90;99.90
22192;DHT22;11261;52.456;10.850;2023-05-07T03:42:40;9.00;99.90
22192;DHT22;11261;52.456;10.850;2023-05-07T03:45:09;8.90;99.90
22192;DHT22;11261;52.456;10.850;2023-05-07T03:47:37;9.00;99.90
22192;DHT22;11261;52.456;10.850;2023-05-07T03:50:05;8.90;99.90
22192;DHT22;11261;52.456;10.850;2023-05-07T03:52:34;8.90;99.90
22192;DHT22;11261;52.456;10.850;2023-05-07T03:55:03;8.90;99.90
22192;DHT22;11261;52.456;10.850;2023-05-07T03:57:34;8.90;99.90
22192;DHT22;11261;52.456;10.850;2023-05-07T04:00:03;9.00;99.90
22192;DHT22;11261;52.456;10.850;2023-05-07T04:02:33;8.90;99.90
22192;DHT22;11261;52.456;10.850;2023-05-07T04:05:01;9.00;99.90
22192;DHT22;11261;52.456;10.850;2023-05-07T04:07:29;9.00;99.90
22192;DHT22;11261;52.456;10.850;2023-05-07T04:09:57;9.00;99.90
22192;DHT22;11261;52.456;10.850;2023-05-07T04:12:26;9.00;99.90
22192;DHT22;11261;52.456;10.850;2023-05-07T04:14:55;9.00;99.90
22192;DHT22;11261;52.456;10.850;2023-05-07T04:17:24;8.90;99.90
22192;DHT22;11261;52.456;10.850;2023-05-07T04:19:52;8.90;99.90
22192;DHT22;11261;52.456;10.850;2023-05-07T04:22:20;9.00;99.90
22192;DHT22;11261;52.456;10.850;2023-05-07T04:24:48;8.90;99.90
22192;DHT22;11261;52.456;10.850;2023-05-07T04:27:16;8.90;99.90
22192;DHT22;11261;52.456;10.850;2023-05-07T04:29:44;8.90;99.90
22192;DHT22;11261;52.456;10.850;2023-05-07T04:32:15;8.90;99.90
22192;DHT22;11261;52.456;10.850;2023-05-07T04:34:44;8.90;99.90
22192;DHT22;11261;52.456;10.850;2023-05-07T04:37:12;8.90;99.90
22192;DHT22;11261;52.456;10.850;2023-05-07T04:39:41;8.90;99.90
22192;DHT22;11261;52.456;10.850;2023-05-07T04:42:09;8.90;99.90
22192;DHT22;11261;52.456;10.850;2023-05-07T04:44:37;8.90;99.90
22192;DHT22;11261;52.456;10.850;2023-05-07T04:47:05;8.90;99.90
22192;DHT22;11261;52.456;10.850;2023-05-07T04:49:35;8.90;99.90
22192;DHT22;11261;52.456;10.850;2023-05-07T04:52:04;8.90;99.90
22192;DHT22;11261;52.456;10.850;2023-05-07T04:54:32;8.90;99.90
22192;DHT22;11261;52.456;10.850;2023-05-07T04:57:02;8.90;99.90
22192;DHT22;11261;52.456;10.850;2023-05-07T04:59:32;9.00;99.90
22192;DHT22;11261;52.456;10.850;2023-05-07T05:02:00;9.00;99.90
22192;DHT22;11261;52.456;10.850;2023-05-07T05:04:28;9.00;99.90
22192;DHT22;11261;52.456;10.850;2023-05-07T05:06:58;9.00;99.90
22192;DHT22;11261;52.456;10.850;2023-05-07T05:09:26;8.90;99.90
22192;DHT22;11261;52.456;10.850;2023-05-07T05:11:54;9.00;99.90
22192;DHT22;11261;52.456;10.850;2023-05-07T05:14:22;9.00;99.90
22192;DHT22;11261;52.456;10.850;2023-05-07T05:16:50;9.00;99.90
22192;DHT22;11261;52.456;10.850;2023-05-07T05:19:19;9.00;99.90
22192;DHT22;11261;52.456;10.850;2023-05-07T05:21:47;9.00;99.90
22192;DHT22;11261;52.456;10.850;2023-05-07T05:24:16;9.00;99.90
22192;DHT22;11261;52.456;10.850;2023-05-07T05:26:45;9.00;99.90
22192;DHT22;11261;52.456;10.850;2023-05-07T05:29:13;9.00;99.90
22192;DHT22;11261;52.456;10.850;2023-05-07T05:31:41;9.00;99.90
22192;DHT22;11261;52.456;10.850;2023-05-07T05:34:10;9.00;99.90
22192;DHT22;11261;52.456;10.850;2023-05-07T05:36:38;9.00;99.90
22192;DHT22;11261;52.456;10.850;2023-05-07T05:39:06;9.10;99.90
22192;DHT22;11261;52.456;10.850;2023-05-07T05:41:36;9.00;99.90
22192;DHT22;11261;52.456;10.850;2023-05-07T05:44:05;9.00;99.90
22192;DHT22;11261;52.456;10.850;2023-05-07T05:46:33;9.10;99.90
22192;DHT22;11261;52.456;10.850;2023-05-07T05:49:03;9.00;99.90
22192;DHT22;11261;52.456;10.850;2023-05-07T05:51:31;9.00;99.90
22192;DHT22;11261;52.456;10.850;2023-05-07T05:53:59;9.10;99.90
22192;DHT22;11261;52.456;10.850;2023-05-07T05:56:27;9.10;99.90
22192;DHT22;11261;52.456;10.850;2023-05-07T05:58:57;9.00;99.90
22192;DHT22;11261;52.456;10.850;2023-05-07T06:01:26;9.10;99.90
22192;DHT22;11261;52.456;10.850;2023-05-07T06:03:54;9.10;99.90
22192;DHT22;11261;52.456;10.850;2023-05-07T06:06:22;9.10;99.90
22192;DHT22;11261;52.456;10.850;2023-05-07T06:08:50;9.20;99.90
22192;DHT22;11261;52.456;10.850;2023-05-07T06:11:19;9.20;99.90
22192;DHT22;11261;52.456;10.850;2023-05-07T06:13:47;9.20;99.90
22192;DHT22;11261;52.456;10.850;2023-05-07T06:16:16;9.10;99.90
22192;DHT22;11261;52.456;10.850;2023-05-07T06:18:45;9.10;99.90
22192;DHT22;11261;52.456;10.850;2023-05-07T06:21:13;9.20;99.90
22192;DHT22;11261;52.456;10.850;2023-05-07T06:23:41;9.20;99.90
22192;DHT22;11261;52.456;10.850;2023-05-07T06:26:10;9.10;99.90
22192;DHT22;11261;52.456;10.850;2023-05-07T06:28:38;9.20;99.90
22192;DHT22;11261;52.456;10.850;2023-05-07T06:31:13;9.20;99.90
22192;DHT22;11261;52.456;10.850;2023-05-07T06:33:44;9.30;99.90
22192;DHT22;11261;52.456;10.850;2023-05-07T06:36:13;9.30;99.90
22192;DHT22;11261;52.456;10.850;2023-05-07T06:38:41;9.30;99.90
22192;DHT22;11261;52.456;10.850;2023-05-07T06:41:09;9.30;99.90
22192;DHT22;11261;52.456;10.850;2023-05-07T06:43:37;9.30;99.90
22192;DHT22;11261;52.456;10.850;2023-05-07T06:46:07;9.30;99.90
22192;DHT22;11261;52.456;10.850;2023-05-07T06:48:35;9.30;99.90
22192;DHT22;11261;52.456;10.850;2023-05-07T06:51:05;9.20;99.90
22192;DHT22;11261;52.456;10.850;2023-05-07T06:53:33;9.30;99.90
22192;DHT22;11261;52.456;10.850;2023-05-07T06:56:02;9.30;99.90
22192;DHT22;11261;52.456;10.850;2023-05-07T06:58:30;9.40;99.90
22192;DHT22;11261;52.456;10.850;2023-05-07T07:00:59;9.30;99.90
22192;DHT22;11261;52.456;10.850;2023-05-07T07:03:27;9.30;99.90
22192;DHT22;11261;52.456;10.850;2023-05-07T07:05:55;9.30;99.90
22192;DHT22;11261;52.456;10.850;2023-05-07T07:08:25;9.30;99.90
22192;DHT22;11261;52.456;10.850;2023-05-07T07:10:53;9.40;99.90
22192;DHT22;11261;52.456;10.850;2023-05-07T07:13:21;9.40;99.90
22192;DHT22;11261;52.456;10.850;2023-05-07T07:15:50;9.40;99.90
22192;DHT22;11261;52.456;10.850;2023-05-07T07:18:18;9.40;99.90
22192;DHT22;11261;52.456;10.850;2023-05-07T07:20:47;9.50;99.90
22192;DHT22;11261;52.456;10.850;2023-05-07T07:23:15;9.50;99.90
22192;DHT22;11261;52.456;10.850;2023-05-07T07:25:45;9.60;99.90
22192;DHT22;11261;52.456;10.850;2023-05-07T07:28:14;9.60;99.90
22192;DHT22;11261;52.456;10.850;2023-05-07T07:30:42;9.70;99.90
22192;DHT22;11261;52.456;10.850;2023-05-07T07:33:10;9.70;99.90
22192;DHT22;11261;52.456;10.850;2023-05-07T07:35:39;9.70;99.90
22192;DHT22;11261;52.456;10.850;2023-05-07T07:38:07;9.70;99.90
22192;DHT22;11261;52.456;10.850;2023-05-07T07:40:35;9.80;99.90
22192;DHT22;11261;52.456;10.850;2023-05-07T07:43:05;9.80;99.90
22192;DHT22;11261;52.456;10.850;2023-05-07T07:45:33;9.70;99.90
22192;DHT22;11261;52.456;10.850;2023-05-07T07:48:02;9.90;99.90
22192;DHT22;11261;52.456;10.850;2023-05-07T07:50:31;9.90;99.90
22192;DHT22;11261;52.456;10.850;2023-05-07T07:53:10;10.00;99.90
22192;DHT22;11261;52.456;10.850;2023-05-07T07:55:38;9.90;99.90
22192;DHT22;11261;52.456;10.850;2023-05-07T07:58:08;9.80;99.90
22192;DHT22;11261;52.456;10.850;2023-05-07T08:00:37;9.90;99.90
22192;DHT22;11261;52.456;10.850;2023-05-07T08:03:05;10.00;99.90
22192;DHT22;11261;52.456;10.850;2023-05-07T08:05:34;9.90;99.90
22192;DHT22;11261;52.456;10.850;2023-05-07T08:08:03;10.00;99.90
22192;DHT22;11261;52.456;10.850;2023-05-07T08:10:33;10.00;99.90
22192;DHT22;11261;52.456;10.850;2023-05-07T08:13:05;10.00;99.90
22192;DHT22;11261;52.456;10.850;2023-05-07T08:15:36;10.00;99.90
22192;DHT22;11261;52.456;10.850;2023-05-07T08:18:04;10.10;99.90
22192;DHT22;11261;52.456;10.850;2023-05-07T08:20:32;10.00;99.90
22192;DHT22;11261;52.456;10.850;2023-05-07T08:23:06;10.10;99.90
22192;DHT22;11261;52.456;10.850;2023-05-07T08:25:34;10.10;99.90
22192;DHT22;11261;52.456;10.850;2023-05-07T08:28:03;10.30;99.90
22192;DHT22;11261;52.456;10.850;2023-05-07T08:30:32;10.30;99.90
22192;DHT22;11261;52.456;10.850;2023-05-07T08:33:02;10.30;99.90
22192;DHT22;11261;52.456;10.850;2023-05-07T08:35:31;10.40;99.90
22192;DHT22;11261;52.456;10.850;2023-05-07T08:37:59;10.40;99.90
22192;DHT22;11261;52.456;10.850;2023-05-07T08:40:27;10.50;99.90
22192;DHT22;11261;52.456;10.850;2023-05-07T08:42:57;10.50;99.90
22192;DHT22;11261;52.456;10.850;2023-05-07T08:45:26;10.40;99.90
22192;DHT22;11261;52.456;10.850;2023-05-07T08:47:58;10.40;99.90
22192;DHT22;11261;52.456;10.850;2023-05-07T08:50:29;10.30;99.90
22192;DHT22;11261;52.456;10.850;2023-05-07T08:52:57;10.30;99.90
22192;DHT22;11261;52.456;10.850;2023-05-07T08:55:28;10.50;99.90
22192;DHT22;11261;52.456;10.850;2023-05-07T08:57:57;10.50;99.90
22192;DHT22;11261;52.456;10.850;2023-05-07T09:00:25;10.40;99.90
22192;DHT22;11261;52.456;10.850;2023-05-07T09:02:53;10.60;99.90
22192;DHT22;11261;52.456;10.850;2023-05-07T09:05:21;10.60;99.90
22192;DHT22;11261;52.456;10.850;2023-05-07T09:07:51;10.60;99.90
22192;DHT22;11261;52.456;10.850;2023-05-07T09:10:21;10.70;99.90
22192;DHT22;11261;52.456;10.850;2023-05-07T09:12:50;10.70;99.90
22192;DHT22;11261;52.456;10.850;2023-05-07T09:15:19;10.60;99.90
22192;DHT22;11261;52.456;10.850;2023-05-07T09:17:47;10.70;99.90
22192;DHT22;11261;52.456;10.850;2023-05-07T09:20:16;10.70;99.90
22192;DHT22;11261;52.456;10.850;2023-05-07T09:22:45;10.70;99.90
22192;DHT22;11261;52.456;10.850;2023-05-07T09:25:14;10.50;99.90
22192;DHT22;11261;52.456;10.850;2023-05-07T09:27:43;10.70;99.90
22192;DHT22;11261;52.456;10.850;2023-05-07T09:30:12;10.60;99.90
22192;DHT22;11261;52.456;10.850;2023-05-07T09:32:40;10.50;99.90
22192;DHT22;11261;52.456;10.850;2023-05-07T09:35:14;10.50;99.90
22192;DHT22;11261;52.456;10.850;2023-05-07T09:37:44;10.70;99.90
22192;DHT22;11261;52.456;10.850;2023-05-07T09:40:22;10.80;99.90
22192;DHT22;11261;52.456;10.850;2023-05-07T09:42:50;10.80;99.90
22192;DHT22;11261;52.456;10.850;2023-05-07T09:45:22;10.60;99.90
22192;DHT22;11261;52.456;10.850;2023-05-07T09:47:54;10.50;99.90
22192;DHT22;11261;52.456;10.850;2023-05-07T09:50:26;10.60;99.90
22192;DHT22;11261;52.456;10.850;2023-05-07T09:52:56;10.60;99.90
22192;DHT22;11261;52.456;10.850;2023-05-07T09:55:27;10.60;99.90
22192;DHT22;11261;52.456;10.850;2023-05-07T09:57:55;10.80;99.90
22192;DHT22;11261;52.456;10.850;2023-05-07T10:00:25;10.70;99.90
22192;DHT22;11261;52.456;10.850;2023-05-07T10:02:57;10.80;99.90
22192;DHT22;11261;52.456;10.850;2023-05-07T10:05:26;10.70;99.90
22192;DHT22;11261;52.456;10.850;2023-05-07T10:07:55;10.80;99.90
22192;DHT22;11261;52.456;10.850;2023-05-07T10:10:25;10.90;99.90
22192;DHT22;11261;52.456;10.850;2023-05-07T10:12:54;11.10;99.90
22192;DHT22;11261;52.456;10.850;2023-05-07T10:15:23;11.00;99.90
22192;DHT22;11261;52.456;10.850;2023-05-07T10:17:53;11.10;99.90
22192;DHT22;11261;52.456;10.850;2023-05-07T10:20:22;11.20;99.90
22192;DHT22;11261;52.456;10.850;2023-05-07T10:22:51;11.10;99.90
22192;DHT22;11261;52.456;10.850;2023-05-07T10:25:25;11.00;99.90
22192;DHT22;11261;52.456;10.850;2023-05-07T10:27:56;11.00;99.90
22192;DHT22;11261;52.456;10.850;2023-05-07T10:30:32;11.00;99.90
22192;DHT22;11261;52.456;10.850;2023-05-07T10:33:05;10.90;99.90
22192;DHT22;11261;52.456;10.850;2023-05-07T10:35:38;11.00;99.90
22192;DHT22;11261;52.456;10.850;2023-05-07T10:38:08;10.90;99.90
22192;DHT22;11261;52.456;10.850;2023-05-07T10:40:36;10.90;99.90
22192;DHT22;11261;52.456;10.850;2023-05-07T10:43:06;11.00;99.90
22192;DHT22;11261;52.456;10.850;2023-05-07T10:45:36;11.00;99.90
22192;DHT22;11261;52.456;10.850;2023-05-07T10:48:09;11.10;99.90
22192;DHT22;11261;52.456;10.850;2023-05-07T10:51:19;11.10;99.90
22192;DHT22;11261;52.456;10.850;2023-05-07T10:53:47;11.00;99.90
22192;DHT22;11261;52.456;10.850;2023-05-07T10:56:26;11.10;99.90
22192;DHT22;11261;52.456;10.850;2023-05-07T10:59:07;11.10;99.90
22192;DHT22;11261;52.456;10.850;2023-05-07T11:02:00;11.30;99.90
22192;DHT22;11261;52.456;10.850;2023-05-07T11:04:30;11.40;99.90
22192;DHT22;11261;52.456;10.850;2023-05-07T11:07:24;11.30;99.90
22192;DHT22;11261;52.456;10.850;2023-05-07T11:09:56;11.40;99.90
22192;DHT22;11261;52.456;10.850;2023-05-07T11:12:55;11.70;99.90
22192;DHT22;11261;52.456;10.850;2023-05-07T11:15:42;12.00;99.90
22192;DHT22;11261;52.456;10.850;2023-05-07T11:18:13;11.90;99.90
22192;DHT22;11261;52.456;10.850;2023-05-07T11:20:54;11.80;99.90
22192;DHT22;11261;52.456;10.850;2023-05-07T11:23:57;11.90;99.90
22192;DHT22;11261;52.456;10.850;2023-05-07T11:26:28;12.20;99.90
22192;DHT22;11261;52.456;10.850;2023-05-07T11:28:57;12.30;99.90
22192;DHT22;11261;52.456;10.850;2023-05-07T11:31:28;12.20;99.90
22192;DHT22;11261;52.456;10.850;2023-05-07T11:33:57;12.20;99.90
22192;DHT22;11261;52.456;10.850;2023-05-07T11:36:30;12.00;99.90
22192;DHT22;11261;52.456;10.850;2023-05-07T11:38:59;12.10;99.90
22192;DHT22;11261;52.456;10.850;2023-05-07T11:41:34;12.20;99.90
22192;DHT22;11261;52.456;10.850;2023-05-07T11:44:04;12.40;99.90
22192;DHT22;11261;52.456;10.850;2023-05-07T11:46:33;12.40;99.90
22192;DHT22;11261;52.456;10.850;2023-05-07T11:49:01;12.70;99.90
22192;DHT22;11261;52.456;10.850;2023-05-07T11:51:30;12.80;99.90
22192;DHT22;11261;52.456;10.850;2023-05-07T11:53:58;12.50;99.90
22192;DHT22;11261;52.456;10.850;2023-05-07T11:56:27;12.30;99.90
22192;DHT22;11261;52.456;10.850;2023-05-07T11:58:55;12.70;99.90
22192;DHT22;11261;52.456;10.850;2023-05-07T12:01:23;12.40;99.90
22192;DHT22;11261;52.456;10.850;2023-05-07T12:03:52;12.40;99.90
22192;DHT22;11261;52.456;10.850;2023-05-07T12:06:21;12.60;99.90
22192;DHT22;11261;52.456;10.850;2023-05-07T12:08:49;12.30;99.90
22192;DHT22;11261;52.456;10.850;2023-05-07T12:11:23;12.30;99.90
22192;DHT22;11261;52.456;10.850;2023-05-07T12:13:53;12.20;99.90
22192;DHT22;11261;52.456;10.850;2023-05-07T12:16:25;12.40;99.90
22192;DHT22;11261;52.456;10.850;2023-05-07T12:18:55;12.60;99.90
22192;DHT22;11261;52.456;10.850;2023-05-07T12:21:26;12.50;99.90
22192;DHT22;11261;52.456;10.850;2023-05-07T12:23:55;12.60;99.90
22192;DHT22;11261;52.456;10.850;2023-05-07T12:26:24;12.60;99.90
22192;DHT22;11261;52.456;10.850;2023-05-07T12:28:52;12.70;99.90
22192;DHT22;11261;52.456;10.850;2023-05-07T12:31:20;12.90;99.90
22192;DHT22;11261;52.456;10.850;2023-05-07T12:33:49;12.90;99.90
22192;DHT22;11261;52.456;10.850;2023-05-07T12:36:19;12.90;99.90
22192;DHT22;11261;52.456;10.850;2023-05-07T12:38:49;12.70;99.90
22192;DHT22;11261;52.456;10.850;2023-05-07T12:41:17;12.80;99.90
22192;DHT22;11261;52.456;10.850;2023-05-07T12:43:56;13.20;99.90
22192;DHT22;11261;52.456;10.850;2023-05-07T12:46:25;13.50;99.90
22192;DHT22;11261;52.456;10.850;2023-05-07T12:48:53;13.80;99.90
22192;DHT22;11261;52.456;10.850;2023-05-07T12:51:23;14.10;99.90
22192;DHT22;11261;52.456;10.850;2023-05-07T12:53:56;13.90;99.90
22192;DHT22;11261;52.456;10.850;2023-05-07T12:56:24;13.90;99.90
22192;DHT22;11261;52.456;10.850;2023-05-07T12:58:57;13.70;99.90
22192;DHT22;11261;52.456;10.850;2023-05-07T13:01:29;13.60;99.90
22192;DHT22;11261;52.456;10.850;2023-05-07T13:04:01;14.00;99.90
22192;DHT22;11261;52.456;10.850;2023-05-07T13:06:32;13.80;99.90
22192;DHT22;11261;52.456;10.850;2023-05-07T13:09:00;14.10;99.90
22192;DHT22;11261;52.456;10.850;2023-05-07T13:11:29;13.70;99.90
22192;DHT22;11261;52.456;10.850;2023-05-07T13:13:57;14.00;99.90
22192;DHT22;11261;52.456;10.850;2023-05-07T13:16:26;14.00;99.90
22192;DHT22;11261;52.456;10.850;2023-05-07T13:18:54;14.40;99.90
22192;DHT22;11261;52.456;10.850;2023-05-07T13:21:22;14.40;99.90
22192;DHT22;11261;52.456;10.850;2023-05-07T13:23:52;14.00;99.90
22192;DHT22;11261;52.456;10.850;2023-05-07T13:26:21;14.10;99.90
22192;DHT22;11261;52.456;10.850;2023-05-07T13:28:53;14.40;99.90
22192;DHT22;11261;52.456;10.850;2023-05-07T13:31:21;14.50;99.90
22192;DHT22;11261;52.456;10.850;2023-05-07T13:33:50;14.40;99.90
22192;DHT22;11261;52.456;10.850;2023-05-07T13:36:19;14.20;99.90
22192;DHT22;11261;52.456;10.850;2023-05-07T13:38:48;14.20;99.90
22192;DHT22;11261;52.456;10.850;2023-05-07T13:41:18;14.20;99.90
22192;DHT22;11261;52.456;10.850;2023-05-07T13:43:46;14.20;99.90
22192;DHT22;11261;52.456;10.850;2023-05-07T13:46:15;14.50;99.90
22192;DHT22;11261;52.456;10.850;2023-05-07T13:48:44;14.60;99.90
22192;DHT22;11261;52.456;10.850;2023-05-07T13:51:12;14.30;99.90
22192;DHT22;11261;52.456;10.850;2023-05-07T13:53:41;14.10;99.90
22192;DHT22;11261;52.456;10.850;2023-05-07T13:56:09;14.20;99.90
22192;DHT22;11261;52.456;10.850;2023-05-07T13:58:39;14.30;99.90
22192;DHT22;11261;52.456;10.850;2023-05-07T14:01:25;14.40;99.90
22192;DHT22;11261;52.456;10.850;2023-05-07T14:03:53;14.30;99.90
22192;DHT22;11261;52.456;10.850;2023-05-07T14:06:22;14.10;99.90
22192;DHT22;11261;52.456;10.850;2023-05-07T14:08:50;14.40;99.90
22192;DHT22;11261;52.456;10.850;2023-05-07T14:11:19;15.30;99.90
22192;DHT22;11261;52.456;10.850;2023-05-07T14:13:49;15.00;99.90
22192;DHT22;11261;52.456;10.850;2023-05-07T14:16:17;14.60;99.90
22192;DHT22;11261;52.456;10.850;2023-05-07T14:18:46;14.30;99.90
22192;DHT22;11261;52.456;10.850;2023-05-07T14:21:14;14.50;99.90
22192;DHT22;11261;52.456;10.850;2023-05-07T14:23:43;14.40;99.90
22192;DHT22;11261;52.456;10.850;2023-05-07T14:26:11;14.70;99.90
22192;DHT22;11261;52.456;10.850;2023-05-07T14:28:39;14.80;99.90
22192;DHT22;11261;52.456;10.850;2023-05-07T14:31:14;14.60;99.90
22192;DHT22;11261;52.456;10.850;2023-05-07T14:33:43;14.50;99.90
22192;DHT22;11261;52.456;10.850;2023-05-07T14:36:11;14.40;99.90
22192;DHT22;11261;52.456;10.850;2023-05-07T14:38:39;14.40;99.90
22192;DHT22;11261;52.456;10.850;2023-05-07T14:41:08;14.70;99.90
22192;DHT22;11261;52.456;10.850;2023-05-07T14:43:36;14.70;99.90
22192;DHT22;11261;52.456;10.850;2023-05-07T14:46:04;14.50;99.90
22192;DHT22;11261;52.456;10.850;2023-05-07T14:48:34;14.90;99.90
22192;DHT22;11261;52.456;10.850;2023-05-07T14:51:03;14.80;99.90
22192;DHT22;11261;52.456;10.850;2023-05-07T14:53:31;14.90;99.90
22192;DHT22;11261;52.456;10.850;2023-05-07T14:56:00;15.00;99.90
22192;DHT22;11261;52.456;10.850;2023-05-07T14:58:28;15.10;99.90
22192;DHT22;11261;52.456;10.850;2023-05-07T15:00:56;14.60;99.90
22192;DHT22;11261;52.456;10.850;2023-05-07T15:03:25;14.50;99.90
22192;DHT22;11261;52.456;10.850;2023-05-07T15:05:55;14.60;99.90
22192;DHT22;11261;52.456;10.850;2023-05-07T15:08:23;14.40;99.90
22192;DHT22;11261;52.456;10.850;2023-05-07T15:10:51;14.30;99.90
22192;DHT22;11261;52.456;10.850;2023-05-07T15:13:20;14.20;99.90
22192;DHT22;11261;52.456;10.850;2023-05-07T15:15:48;14.10;99.90
22192;DHT22;11261;52.456;10.850;2023-05-07T15:18:17;14.20;99.90
22192;DHT22;11261;52.456;10.850;2023-05-07T15:20:48;14.20;99.90
22192;DHT22;11261;52.456;10.850;2023-05-07T15:23:18;14.30;99.90
22192;DHT22;11261;52.456;10.850;2023-05-07T15:25:47;14.00;99.90
22192;DHT22;11261;52.456;10.850;2023-05-07T15:28:18;14.10;99.90
22192;DHT22;11261;52.456;10.850;2023-05-07T15:30:47;14.60;99.90
22192;DHT22;11261;52.456;10.850;2023-05-07T15:33:15;14.40;99.90
22192;DHT22;11261;52.456;10.850;2023-05-07T15:35:44;14.20;99.90
22192;DHT22;11261;52.456;10.850;2023-05-07T15:38:12;14.00;99.90